createdAt,value
2023-11-09T00:01:06.929Z,0.30
2023-11-09T00:03:34.862Z,0.30
2023-11-09T00:06:02.831Z,0.30
2023-11-09T00:08:31.726Z,0.30
2023-11-09T00:10:59.587Z,0.30
2023-11-09T00:13:28.904Z,0.30
2023-11-09T00:15:57.466Z,0.40
2023-11-09T00:18:25.350Z,0.40
2023-11-09T00:20:53.993Z,0.40
2023-11-09T00:23:21.959Z,0.40
2023-11-09T00:25:49.883Z,0.40
2023-11-09T00:28:18.069Z,0.50
2023-11-09T00:30:47.655Z,0.50
2023-11-09T00:33:15.552Z,0.50
2023-11-09T00:35:45.265Z,0.50
2023-11-09T00:38:15.970Z,0.50
2023-11-09T00:40:43.860Z,0.50
2023-11-09T00:43:13.065Z,0.40
2023-11-09T00:45:41.057Z,0.40
2023-11-09T00:48:10.328Z,0.40
2023-11-09T00:50:38.261Z,0.40
2023-11-09T00:53:06.156Z,0.40
2023-11-09T00:55:34.055Z,0.40
2023-11-09T00:58:01.953Z,0.40
2023-11-09T01:00:29.843Z,0.40
2023-11-09T01:02:57.719Z,0.40
2023-11-09T01:05:27.081Z,0.40
2023-11-09T01:07:54.961Z,0.40
2023-11-09T01:10:23.161Z,0.30
2023-11-09T01:12:52.530Z,0.30
2023-11-09T01:15:20.447Z,0.30
2023-11-09T01:18:04.634Z,0.30
2023-11-09T01:20:34.903Z,0.30
2023-11-09T01:23:02.773Z,0.30
2023-11-09T01:25:30.850Z,0.30
2023-11-09T01:27:58.782Z,0.30
2023-11-09T01:30:27.420Z,0.30
2023-11-09T01:32:55.654Z,0.30
2023-11-09T01:35:23.572Z,0.30
2023-11-09T01:37:52.805Z,0.30
2023-11-09T01:40:25.027Z,0.30
2023-11-09T01:42:53.760Z,0.30
2023-11-09T01:45:21.641Z,0.30
2023-11-09T01:47:48.590Z,0.30
2023-11-09T01:50:16.893Z,0.30
2023-11-09T01:52:45.001Z,0.20
2023-11-09T01:55:15.536Z,0.20
2023-11-09T01:57:44.031Z,0.20
2023-11-09T02:00:13.490Z,0.20
2023-11-09T02:02:41.813Z,0.10
2023-11-09T02:05:10.236Z,0.10
2023-11-09T02:07:38.515Z,0.10
2023-11-09T02:10:09.135Z,0.10
2023-11-09T02:12:39.016Z,0.00
2023-11-09T02:15:07.685Z,0.00
2023-11-09T02:17:36.224Z,0.00
2023-11-09T02:20:05.298Z,0.00
2023-11-09T02:22:34.281Z,-0.10
2023-11-09T02:25:04.292Z,0.00
2023-11-09T02:27:32.230Z,-0.10
2023-11-09T02:30:00.061Z,-0.10
2023-11-09T02:32:27.979Z,-0.10
2023-11-09T02:34:57.536Z,-0.10
2023-11-09T02:37:25.999Z,-0.10
2023-11-09T02:39:54.876Z,-0.10
2023-11-09T02:42:24.299Z,-0.10
2023-11-09T02:44:52.227Z,-0.10
2023-11-09T02:47:20.128Z,-0.10
2023-11-09T02:49:48.056Z,-0.10
2023-11-09T02:52:15.992Z,-0.10
2023-11-09T02:54:43.931Z,-0.10
2023-11-09T02:57:12.757Z,-0.20
2023-11-09T02:59:43.081Z,-0.20
2023-11-09T03:02:11.771Z,-0.20
2023-11-09T03:04:40.550Z,-0.20
2023-11-09T03:07:10.255Z,-0.20
2023-11-09T03:09:38.493Z,-0.30
2023-11-09T03:12:08.027Z,-0.30
2023-11-09T03:14:36.175Z,-0.30
2023-11-09T03:17:08.799Z,-0.30
2023-11-09T03:19:37.021Z,-0.30
2023-11-09T03:22:05.268Z,-0.40
2023-11-09T03:24:34.319Z,-0.30
2023-11-09T03:27:03.502Z,-0.40
2023-11-09T03:29:31.369Z,-0.30
2023-11-09T03:31:59.299Z,-0.30
2023-11-09T03:34:28.650Z,-0.40
2023-11-09T03:36:56.605Z,-0.40
2023-11-09T03:39:25.217Z,-0.40
2023-11-09T03:41:53.303Z,-0.40
2023-11-09T03:44:21.194Z,-0.40
2023-11-09T03:46:51.331Z,-0.50
2023-11-09T03:49:19.287Z,-0.50
2023-11-09T03:51:48.620Z,-0.50
2023-11-09T03:54:16.932Z,-0.60
2023-11-09T03:56:44.836Z,-0.60
2023-11-09T03:59:12.675Z,-0.60
2023-11-09T04:01:40.563Z,-0.60
2023-11-09T04:04:08.498Z,-0.60
2023-11-09T04:06:36.884Z,-0.60
2023-11-09T04:09:06.953Z,-0.60
2023-11-09T04:11:34.839Z,-0.60
2023-11-09T04:14:02.727Z,-0.60
2023-11-09T04:16:30.610Z,-0.70
2023-11-09T04:18:58.517Z,-0.70
2023-11-09T04:21:26.454Z,-0.70
2023-11-09T04:23:54.332Z,-0.70
2023-11-09T04:26:24.130Z,-0.70
2023-11-09T04:28:52.651Z,-0.70
2023-11-09T04:31:21.944Z,-0.80
2023-11-09T04:33:49.875Z,-0.80
2023-11-09T04:36:18.234Z,-0.80
2023-11-09T04:38:47.873Z,-0.80
2023-11-09T04:41:17.381Z,-0.70
2023-11-09T04:43:47.216Z,-0.80
2023-11-09T04:46:18.556Z,-0.80
2023-11-09T04:48:48.592Z,-0.80
2023-11-09T04:51:23.703Z,-0.80
2023-11-09T04:53:53.241Z,-0.80
2023-11-09T04:56:39.674Z,-0.80
2023-11-09T04:59:26.554Z,-0.80
2023-11-09T05:02:09.586Z,-0.90
2023-11-09T05:04:54.903Z,-0.90
2023-11-09T05:07:22.811Z,-0.90
2023-11-09T05:09:50.653Z,-0.90
2023-11-09T05:12:18.686Z,-0.90
2023-11-09T05:14:48.030Z,-0.90
2023-11-09T05:17:16.279Z,-0.90
2023-11-09T05:19:45.008Z,-0.90
2023-11-09T05:22:13.600Z,-0.90
2023-11-09T05:24:43.297Z,-0.90
2023-11-09T05:27:11.567Z,-0.90
2023-11-09T05:29:39.656Z,-0.80
2023-11-09T05:32:09.396Z,-0.80
2023-11-09T05:34:38.039Z,-0.80
2023-11-09T05:37:06.993Z,-0.80
2023-11-09T05:39:35.285Z,-0.80
2023-11-09T05:42:04.262Z,-0.90
2023-11-09T05:44:32.263Z,-0.90
2023-11-09T05:47:00.161Z,-0.90
2023-11-09T05:49:29.485Z,-0.90
2023-11-09T05:51:57.452Z,-0.90
2023-11-09T05:54:25.607Z,-0.90
2023-11-09T05:56:53.493Z,-0.90
2023-11-09T05:59:24.496Z,-0.90
2023-11-09T06:01:52.429Z,-0.90
2023-11-09T06:04:20.361Z,-0.90
2023-11-09T06:06:49.740Z,-0.80
2023-11-09T06:09:17.747Z,-0.80
2023-11-09T06:11:47.435Z,-0.90
2023-11-09T06:14:17.384Z,-0.90
2023-11-09T06:16:45.768Z,-0.90
2023-11-09T06:19:14.920Z,-0.80
2023-11-09T06:21:42.859Z,-0.80
2023-11-09T06:24:12.151Z,-0.80
2023-11-09T06:26:40.070Z,-0.80
2023-11-09T06:29:07.939Z,-0.80
2023-11-09T06:31:36.729Z,-0.80
2023-11-09T06:34:05.234Z,-0.70
2023-11-09T06:36:33.205Z,-0.70
2023-11-09T06:39:01.145Z,-0.70
2023-11-09T06:41:30.460Z,-0.60
2023-11-09T06:43:58.330Z,-0.60
2023-11-09T06:46:28.021Z,-0.50
2023-11-09T06:48:56.415Z,-0.40
2023-11-09T06:51:24.476Z,-0.40
2023-11-09T06:53:52.480Z,-0.30
2023-11-09T06:56:20.395Z,-0.30
2023-11-09T06:58:49.588Z,-0.20
2023-11-09T07:01:17.497Z,-0.10
2023-11-09T07:03:45.405Z,0.00
2023-11-09T07:06:13.604Z,0.00
2023-11-09T07:08:41.516Z,0.10
2023-11-09T07:11:09.422Z,0.20
2023-11-09T07:13:38.143Z,0.30
2023-11-09T07:16:08.543Z,0.40
2023-11-09T07:18:36.534Z,0.50
2023-11-09T07:21:10.617Z,0.60
2023-11-09T07:23:40.298Z,0.70
2023-11-09T07:26:08.223Z,0.80
2023-11-09T07:28:36.153Z,0.90
2023-11-09T07:31:04.171Z,1.00
2023-11-09T07:33:33.604Z,1.00
2023-11-09T07:36:01.534Z,1.10
2023-11-09T07:38:29.608Z,1.10
2023-11-09T07:40:57.495Z,1.10
2023-11-09T07:43:26.654Z,1.20
2023-11-09T07:45:54.685Z,1.30
2023-11-09T07:48:25.171Z,1.30
2023-11-09T07:50:55.283Z,1.40
2023-11-09T07:53:23.398Z,1.40
2023-11-09T07:55:51.893Z,1.60
2023-11-09T07:58:20.819Z,1.70
2023-11-09T08:00:51.273Z,1.80
2023-11-09T08:03:19.841Z,2.00
2023-11-09T08:05:48.693Z,2.20
2023-11-09T08:08:18.152Z,2.30
2023-11-09T08:10:46.413Z,2.40
2023-11-09T08:13:14.701Z,2.60
2023-11-09T08:15:42.607Z,2.70
2023-11-09T08:18:10.638Z,2.90
2023-11-09T08:20:39.108Z,3.10
2023-11-09T08:23:09.632Z,3.30
2023-11-09T08:25:39.167Z,3.40
2023-11-09T08:28:07.706Z,3.50
2023-11-09T08:30:35.531Z,3.70
2023-11-09T08:33:05.501Z,3.90
2023-11-09T08:35:34.231Z,4.00
2023-11-09T08:38:02.410Z,4.20
2023-11-09T08:40:31.196Z,4.40
2023-11-09T08:43:00.631Z,4.60
2023-11-09T08:45:30.658Z,4.80
2023-11-09T08:47:59.034Z,5.00
2023-11-09T08:50:27.162Z,5.30
2023-11-09T08:52:55.982Z,5.50
2023-11-09T08:55:24.665Z,5.70
2023-11-09T08:57:52.696Z,5.90
2023-11-09T09:00:25.196Z,6.10
2023-11-09T09:02:55.733Z,6.30
2023-11-09T09:05:25.363Z,6.50
2023-11-09T09:07:57.961Z,6.40
2023-11-09T09:10:28.738Z,6.50
2023-11-09T09:12:58.453Z,6.50
2023-11-09T09:15:29.613Z,6.70
2023-11-09T09:17:59.057Z,7.00
2023-11-09T09:20:27.005Z,7.30
2023-11-09T09:22:57.233Z,7.30
2023-11-09T09:25:26.575Z,7.50
2023-11-09T09:27:55.036Z,7.70
2023-11-09T09:30:24.035Z,8.00
2023-11-09T09:32:54.228Z,8.20
2023-11-09T09:35:26.258Z,8.50
2023-11-09T09:37:55.754Z,8.60
2023-11-09T09:40:31.325Z,8.70
2023-11-09T09:43:04.661Z,8.90
2023-11-09T09:45:32.806Z,9.30
2023-11-09T09:48:03.818Z,9.50
2023-11-09T09:50:35.128Z,9.80
2023-11-09T09:53:03.628Z,10.00
2023-11-09T09:55:31.670Z,10.30
2023-11-09T09:58:00.237Z,10.60
2023-11-09T10:00:28.136Z,10.70
2023-11-09T10:02:57.190Z,11.00
2023-11-09T10:05:29.590Z,11.30
2023-11-09T10:08:08.537Z,11.50
2023-11-09T10:10:38.779Z,11.60
2023-11-09T10:13:08.817Z,11.60
2023-11-09T10:15:36.858Z,11.80
2023-11-09T10:18:05.862Z,12.10
2023-11-09T10:20:36.067Z,12.10
2023-11-09T10:23:04.945Z,12.10
2023-11-09T10:25:34.536Z,12.30
2023-11-09T10:28:02.778Z,12.60
2023-11-09T10:30:38.792Z,13.10
2023-11-09T10:33:11.133Z,13.70
2023-11-09T10:35:40.802Z,14.00
2023-11-09T10:38:10.741Z,14.10
2023-11-09T10:40:44.513Z,14.30
2023-11-09T10:43:34.569Z,14.10
2023-11-09T10:46:09.114Z,14.00
2023-11-09T10:48:42.287Z,14.30
2023-11-09T10:51:13.051Z,14.90
2023-11-09T10:53:44.662Z,15.50
2023-11-09T10:56:15.542Z,15.50
2023-11-09T10:58:46.309Z,15.70
2023-11-09T11:01:21.696Z,15.90
2023-11-09T11:03:52.476Z,15.90
2023-11-09T11:06:25.253Z,16.50
2023-11-09T11:08:57.370Z,17.00
2023-11-09T11:11:30.105Z,17.30
2023-11-09T11:14:01.961Z,17.40
2023-11-09T11:16:36.842Z,17.80
2023-11-09T11:19:20.210Z,17.60
2023-11-09T11:21:58.656Z,17.50
2023-11-09T11:24:39.112Z,17.20
2023-11-09T11:27:18.833Z,17.00
2023-11-09T11:29:50.042Z,16.70
2023-11-09T11:32:23.446Z,16.80
2023-11-09T11:34:55.686Z,17.00
2023-11-09T11:37:26.982Z,17.60
2023-11-09T11:39:56.143Z,18.40
2023-11-09T11:42:26.288Z,18.70
2023-11-09T11:44:58.273Z,18.50
2023-11-09T11:47:30.055Z,18.40
2023-11-09T11:50:00.559Z,17.90
2023-11-09T11:52:31.926Z,17.20
2023-11-09T11:55:02.044Z,16.60
2023-11-09T11:57:33.155Z,16.60
2023-11-09T12:00:09.911Z,16.80
2023-11-09T12:02:40.149Z,17.40
2023-11-09T12:05:10.757Z,18.60
2023-11-09T12:07:41.354Z,19.30
2023-11-09T12:10:17.641Z,19.60
2023-11-09T12:12:55.563Z,19.80
2023-11-09T12:15:29.499Z,19.40
2023-11-09T12:17:57.941Z,19.10
2023-11-09T12:20:26.912Z,19.60
2023-11-09T12:22:56.218Z,19.60
2023-11-09T12:25:27.568Z,19.70
2023-11-09T12:27:57.100Z,19.80
2023-11-09T12:30:25.046Z,19.90
2023-11-09T12:32:54.717Z,19.90
2023-11-09T12:35:22.850Z,19.30
2023-11-09T12:38:02.394Z,18.70
2023-11-09T12:40:31.986Z,18.50
2023-11-09T12:43:01.376Z,18.30
2023-11-09T12:45:29.328Z,18.20
2023-11-09T12:47:57.838Z,18.20
2023-11-09T12:50:29.822Z,18.70
2023-11-09T12:52:59.743Z,19.20
2023-11-09T12:55:29.401Z,18.70
2023-11-09T12:57:57.311Z,17.90
2023-11-09T13:00:30.783Z,17.70
2023-11-09T13:03:00.279Z,17.40
2023-11-09T13:05:33.761Z,17.30
2023-11-09T13:08:09.600Z,17.90
2023-11-09T13:10:40.163Z,18.40
2023-11-09T13:13:22.134Z,18.80
2023-11-09T13:15:50.803Z,18.50
2023-11-09T13:18:24.601Z,18.20
2023-11-09T13:20:55.135Z,18.20
2023-11-09T13:23:33.579Z,18.10
2023-11-09T13:26:02.319Z,17.90
2023-11-09T13:28:30.836Z,18.00
2023-11-09T13:31:05.083Z,18.10
2023-11-09T13:33:36.664Z,18.40
2023-11-09T13:36:09.481Z,18.40
2023-11-09T13:38:45.343Z,18.70
2023-11-09T13:41:22.183Z,18.60
2023-11-09T13:44:07.713Z,18.10
2023-11-09T13:46:42.254Z,17.30
2023-11-09T13:49:20.275Z,16.20
2023-11-09T13:51:58.922Z,15.30
2023-11-09T13:54:37.897Z,14.50
2023-11-09T13:57:20.016Z,13.70
2023-11-09T13:59:55.356Z,13.20
2023-11-09T14:02:24.184Z,12.80
2023-11-09T14:04:54.990Z,12.40
2023-11-09T14:07:33.058Z,12.10
2023-11-09T14:10:05.711Z,11.80
2023-11-09T14:12:47.924Z,11.50
2023-11-09T14:15:24.718Z,11.20
2023-11-09T14:17:53.591Z,10.80
2023-11-09T14:20:35.452Z,10.60
2023-11-09T14:23:07.236Z,10.40
2023-11-09T14:25:39.447Z,10.10
2023-11-09T14:28:07.802Z,9.80
2023-11-09T14:30:35.677Z,9.60
2023-11-09T14:33:05.071Z,9.40
2023-11-09T14:35:34.366Z,9.20
2023-11-09T14:38:05.803Z,9.00
2023-11-09T14:40:37.313Z,8.80
2023-11-09T14:43:10.882Z,8.70
2023-11-09T14:45:42.718Z,8.50
2023-11-09T14:48:12.312Z,8.30
2023-11-09T14:50:40.767Z,8.10
2023-11-09T14:53:25.937Z,7.90
2023-11-09T14:56:00.139Z,7.80
2023-11-09T14:58:32.952Z,7.60
2023-11-09T15:01:04.697Z,7.50
2023-11-09T15:03:35.262Z,7.40
2023-11-09T15:06:11.374Z,7.20
2023-11-09T15:08:39.935Z,7.10
2023-11-09T15:11:11.960Z,7.00
2023-11-09T15:13:42.610Z,6.90
2023-11-09T15:16:15.166Z,6.80
2023-11-09T15:18:45.992Z,6.60
2023-11-09T15:21:15.451Z,6.50
2023-11-09T15:23:43.599Z,6.40
2023-11-09T15:26:11.522Z,6.30
2023-11-09T15:28:40.700Z,6.30
2023-11-09T15:31:11.460Z,6.20
2023-11-09T15:33:39.477Z,6.10
2023-11-09T15:36:07.591Z,6.00
2023-11-09T15:38:35.586Z,5.90
2023-11-09T15:41:18.402Z,5.80
2023-11-09T15:43:51.266Z,5.80
2023-11-09T15:46:20.586Z,5.70
2023-11-09T15:48:48.667Z,5.70
2023-11-09T15:51:17.583Z,5.60
2023-11-09T15:53:45.569Z,5.60
2023-11-09T15:56:14.424Z,5.50
2023-11-09T15:58:42.821Z,5.40
2023-11-09T16:01:15.097Z,5.30
2023-11-09T16:03:46.418Z,5.20
2023-11-09T16:06:14.721Z,5.20
2023-11-09T16:08:42.556Z,5.10
2023-11-09T16:11:11.041Z,5.10
2023-11-09T16:13:39.192Z,5.10
2023-11-09T16:16:07.154Z,5.10
2023-11-09T16:18:35.247Z,5.00
2023-11-09T16:21:06.629Z,5.00
2023-11-09T16:23:37.312Z,5.00
2023-11-09T16:26:05.452Z,4.90
2023-11-09T16:28:34.860Z,4.90
2023-11-09T16:31:07.704Z,4.80
2023-11-09T16:33:36.400Z,4.80
2023-11-09T16:36:06.268Z,4.80
2023-11-09T16:38:34.347Z,4.70
2023-11-09T16:41:02.365Z,4.70
2023-11-09T16:43:30.288Z,4.70
2023-11-09T16:45:58.174Z,4.70
2023-11-09T16:48:26.035Z,4.60
2023-11-09T16:50:56.087Z,4.60
2023-11-09T16:53:25.391Z,4.60
2023-11-09T16:55:53.617Z,4.60
2023-11-09T16:58:21.637Z,4.50
2023-11-09T17:00:49.491Z,4.50
2023-11-09T17:03:17.476Z,4.50
2023-11-09T17:05:45.322Z,4.50
2023-11-09T17:08:13.267Z,4.40
2023-11-09T17:10:42.985Z,4.40
2023-11-09T17:13:11.617Z,4.40
2023-11-09T17:15:39.475Z,4.40
2023-11-09T17:18:07.855Z,4.30
2023-11-09T17:20:37.853Z,4.30
2023-11-09T17:23:05.752Z,4.20
2023-11-09T17:25:33.654Z,4.20
2023-11-09T17:28:03.699Z,4.20
2023-11-09T17:30:31.751Z,4.10
2023-11-09T17:33:01.401Z,4.00
2023-11-09T17:35:30.133Z,3.90
2023-11-09T17:37:57.993Z,3.80
2023-11-09T17:40:25.999Z,3.70
2023-11-09T17:42:53.881Z,3.60
2023-11-09T17:45:23.097Z,3.60
2023-11-09T17:47:51.317Z,3.50
2023-11-09T17:50:20.069Z,3.40
2023-11-09T17:52:49.952Z,3.30
2023-11-09T17:55:20.911Z,3.30
2023-11-09T17:57:49.181Z,3.30
2023-11-09T18:00:17.814Z,3.30
2023-11-09T18:02:47.778Z,3.30
2023-11-09T18:05:16.096Z,3.30
2023-11-09T18:07:44.601Z,3.20
2023-11-09T18:10:13.009Z,3.20
2023-11-09T18:12:43.141Z,3.20
2023-11-09T18:15:12.085Z,3.10
2023-11-09T18:17:40.196Z,3.10
2023-11-09T18:20:11.795Z,3.10
2023-11-09T18:22:39.989Z,3.10
2023-11-09T18:25:10.332Z,3.10
2023-11-09T18:27:38.622Z,3.00
2023-11-09T18:30:07.903Z,3.00
2023-11-09T18:32:36.826Z,2.90
2023-11-09T18:35:07.473Z,2.90
2023-11-09T18:37:37.256Z,2.90
2023-11-09T18:40:07.992Z,2.80
2023-11-09T18:42:36.327Z,2.80
2023-11-09T18:45:04.590Z,2.80
2023-11-09T18:47:32.787Z,2.70
2023-11-09T18:52:31.739Z,2.70
2023-11-09T18:55:01.047Z,2.60
2023-11-09T18:57:28.966Z,2.60
2023-11-09T18:59:57.829Z,2.50
2023-11-09T19:02:26.363Z,2.50
2023-11-09T19:04:54.383Z,2.50
2023-11-09T19:07:22.318Z,2.50
2023-11-09T19:09:50.786Z,2.50
2023-11-09T19:12:20.397Z,2.40
2023-11-09T19:14:51.028Z,2.40
2023-11-09T19:17:18.840Z,2.30
2023-11-09T19:19:46.679Z,2.10
2023-11-09T19:24:46.144Z,2.00
2023-11-09T19:27:14.122Z,1.90
2023-11-09T19:29:44.669Z,1.90
2023-11-09T19:32:13.909Z,1.80
2023-11-09T19:34:41.752Z,1.80
2023-11-09T19:37:09.806Z,1.70
2023-11-09T19:39:37.747Z,1.70
2023-11-09T19:42:05.927Z,1.70
2023-11-09T19:44:34.163Z,1.70
2023-11-09T19:47:05.907Z,1.60
2023-11-09T19:49:33.970Z,1.60
2023-11-09T19:52:02.110Z,1.50
2023-11-09T19:54:30.070Z,1.40
2023-11-09T19:56:58.028Z,1.30
2023-11-09T19:59:26.377Z,1.30
2023-11-09T20:01:54.225Z,1.20
2023-11-09T20:04:23.917Z,1.20
2023-11-09T20:06:52.287Z,1.20
2023-11-09T20:09:21.859Z,1.20
2023-11-09T20:11:50.060Z,1.20
2023-11-09T20:14:17.922Z,1.20
2023-11-09T20:16:46.251Z,1.30
2023-11-09T20:19:14.516Z,1.30
2023-11-09T20:21:46.344Z,1.30
2023-11-09T20:24:15.907Z,1.40
2023-11-09T20:26:44.262Z,1.40
2023-11-09T20:29:12.296Z,1.40
2023-11-09T20:31:40.171Z,1.40
2023-11-09T20:34:08.272Z,1.40
2023-11-09T20:36:36.491Z,1.40
2023-11-09T20:39:07.587Z,1.50
2023-11-09T20:41:35.645Z,1.50
2023-11-09T20:44:04.305Z,1.50
2023-11-09T20:46:34.776Z,1.60
2023-11-09T20:49:03.236Z,1.60
2023-11-09T20:51:31.312Z,1.70
2023-11-09T20:54:00.687Z,1.70
2023-11-09T20:56:30.098Z,1.80
2023-11-09T20:58:58.490Z,1.80
2023-11-09T21:01:28.139Z,1.80
2023-11-09T21:03:56.589Z,1.80
2023-11-09T21:06:25.444Z,1.90
2023-11-09T21:08:53.848Z,1.90
2023-11-09T21:11:21.796Z,1.90
2023-11-09T21:13:50.988Z,2.00
2023-11-09T21:16:18.954Z,2.00
2023-11-09T21:18:47.810Z,2.00
2023-11-09T21:21:16.055Z,2.00
2023-11-09T21:23:44.117Z,2.00
2023-11-09T21:26:14.002Z,2.10
2023-11-09T21:28:41.938Z,2.10
2023-11-09T21:31:11.723Z,2.10
2023-11-09T21:33:41.836Z,2.20
2023-11-09T21:36:14.949Z,2.20
2023-11-09T21:38:43.094Z,2.20
2023-11-09T21:41:10.970Z,2.30
2023-11-09T21:43:38.873Z,2.30
2023-11-09T21:46:09.406Z,2.30
2023-11-09T21:48:39.650Z,2.40
2023-11-09T21:51:09.226Z,2.40
2023-11-09T21:53:38.865Z,2.40
2023-11-09T21:56:07.259Z,2.40
2023-11-09T21:58:35.492Z,2.30
2023-11-09T22:01:03.421Z,2.40
2023-11-09T22:03:31.423Z,2.30
2023-11-09T22:06:00.698Z,2.40
2023-11-09T22:08:28.574Z,2.40
2023-11-09T22:10:56.838Z,2.40
2023-11-09T22:13:24.845Z,2.30
2023-11-09T22:15:54.779Z,2.30
2023-11-09T22:18:23.895Z,2.30
2023-11-09T22:20:51.959Z,2.30
2023-11-09T22:23:21.180Z,2.30
2023-11-09T22:25:49.047Z,2.30
2023-11-09T22:28:16.947Z,2.30
2023-11-09T22:30:44.881Z,2.30
2023-11-09T22:33:15.380Z,2.30
2023-11-09T22:35:44.024Z,2.30
2023-11-09T22:38:11.883Z,2.30
2023-11-09T22:40:41.653Z,2.30
2023-11-09T22:43:13.641Z,2.30
2023-11-09T22:45:41.600Z,2.30
2023-11-09T22:48:09.618Z,2.30
2023-11-09T22:50:37.561Z,2.30
2023-11-09T22:53:06.317Z,2.30
2023-11-09T22:55:34.170Z,2.30
2023-11-09T22:58:03.464Z,2.30
2023-11-09T23:00:37.375Z,2.30
2023-11-09T23:03:05.608Z,2.30
2023-11-09T23:05:33.555Z,2.30
2023-11-09T23:08:01.481Z,2.20
2023-11-09T23:10:29.576Z,2.20
2023-11-09T23:12:57.822Z,2.20
2023-11-09T23:15:27.157Z,2.20
2023-11-09T23:17:55.158Z,2.20
2023-11-09T23:20:23.024Z,2.20
2023-11-09T23:22:50.911Z,2.20
2023-11-09T23:25:19.407Z,2.20
2023-11-09T23:27:47.665Z,2.20
2023-11-09T23:30:16.658Z,2.20
2023-11-09T23:32:46.335Z,2.30
2023-11-09T23:35:17.531Z,2.30
2023-11-09T23:37:45.450Z,2.30
2023-11-09T23:40:15.037Z,2.30
2023-11-09T23:42:43.167Z,2.30
2023-11-09T23:45:11.509Z,2.30
2023-11-09T23:47:39.478Z,2.30
2023-11-09T23:50:10.644Z,2.40
2023-11-09T23:52:38.606Z,2.40
2023-11-09T23:55:07.720Z,2.30
2023-11-09T23:57:35.964Z,2.40
